Sherman, Nebraska
Current Conditions -  °F | °C
As of 6:55 AM on Saturday 22 Nov 2014 (Local Time) from KHDE Reporting Station
Haze Haze  
Wind Chill: 24°   Ceiling: Unl
Heat Index: 24°   Visibility: 4mi
Dew Point: 22°   Wind: 3mph
Humidity: 95%   Direction: 190°S
Pressure: 29.83"   Gusts: NA
Location:  40.3942°N, 99.1223°W
Report Text: KHDE 221255Z AUTO 19003KT 4SM BR SCT001 M05/M05 A2983 RMK AO2 T10461053
Loading
Personal Weather Stations






























Interactive Weather Map New forecast layout! Learn more

10-Day Weather Forecast

Advertisements
Track Severe Weather on mobile